sensor_id;sensor_type;location;lat;lon;timestamp;P1;durP1;ratioP1;P2;durP2;ratioP2
23410;SDS011;11878;51.774;7.220;2022-10-13T00:00:47;10.57;;;3.80;;
23410;SDS011;11878;51.774;7.220;2022-10-13T00:03:49;9.10;;;3.47;;
23410;SDS011;11878;51.774;7.220;2022-10-13T00:06:53;6.60;;;3.40;;
23410;SDS011;11878;51.774;7.220;2022-10-13T00:09:59;8.50;;;3.30;;
23410;SDS011;11878;51.774;7.220;2022-10-13T00:13:00;8.23;;;4.20;;
23410;SDS011;11878;51.774;7.220;2022-10-13T00:16:02;9.17;;;3.80;;
23410;SDS011;11878;51.774;7.220;2022-10-13T00:19:05;6.63;;;3.20;;
23410;SDS011;11878;51.774;7.220;2022-10-13T00:22:06;9.70;;;3.57;;
23410;SDS011;11878;51.774;7.220;2022-10-13T00:25:08;7.87;;;4.00;;
23410;SDS011;11878;51.774;7.220;2022-10-13T00:28:10;9.13;;;3.90;;
23410;SDS011;11878;51.774;7.220;2022-10-13T00:31:13;6.47;;;3.67;;
23410;SDS011;11878;51.774;7.220;2022-10-13T00:34:22;8.00;;;3.97;;
23410;SDS011;11878;51.774;7.220;2022-10-13T00:37:24;7.27;;;4.10;;
23410;SDS011;11878;51.774;7.220;2022-10-13T00:40:26;5.80;;;3.73;;
23410;SDS011;11878;51.774;7.220;2022-10-13T00:47:07;9.73;;;3.87;;
23410;SDS011;11878;51.774;7.220;2022-10-13T00:50:11;9.07;;;3.67;;
23410;SDS011;11878;51.774;7.220;2022-10-13T00:53:20;11.60;;;4.67;;
23410;SDS011;11878;51.774;7.220;2022-10-13T00:56:24;16.53;;;5.17;;
23410;SDS011;11878;51.774;7.220;2022-10-13T00:59:27;9.13;;;4.50;;
23410;SDS011;11878;51.774;7.220;2022-10-13T01:02:31;9.03;;;4.30;;
23410;SDS011;11878;51.774;7.220;2022-10-13T01:05:36;11.07;;;5.63;;
23410;SDS011;11878;51.774;7.220;2022-10-13T01:08:39;11.60;;;4.80;;
23410;SDS011;11878;51.774;7.220;2022-10-13T01:32:15;12.67;;;5.03;;
23410;SDS011;11878;51.774;7.220;2022-10-13T01:35:32;12.03;;;5.70;;
23410;SDS011;11878;51.774;7.220;2022-10-13T01:42:00;8.03;;;4.10;;
23410;SDS011;11878;51.774;7.220;2022-10-13T01:45:11;13.07;;;4.50;;
23410;SDS011;11878;51.774;7.220;2022-10-13T01:48:17;10.20;;;4.20;;
23410;SDS011;11878;51.774;7.220;2022-10-13T01:51:24;11.70;;;5.77;;
23410;SDS011;11878;51.774;7.220;2022-10-13T01:54:28;11.27;;;5.30;;
23410;SDS011;11878;51.774;7.220;2022-10-13T01:57:38;12.27;;;5.00;;
23410;SDS011;11878;51.774;7.220;2022-10-13T02:00:42;10.43;;;5.23;;
23410;SDS011;11878;51.774;7.220;2022-10-13T02:07:08;9.90;;;4.47;;
23410;SDS011;11878;51.774;7.220;2022-10-13T02:10:34;9.17;;;4.57;;
23410;SDS011;11878;51.774;7.220;2022-10-13T02:17:01;9.73;;;5.07;;
23410;SDS011;11878;51.774;7.220;2022-10-13T02:20:07;9.90;;;5.33;;
23410;SDS011;11878;51.774;7.220;2022-10-13T02:23:11;11.73;;;5.23;;
23410;SDS011;11878;51.774;7.220;2022-10-13T02:26:15;18.73;;;9.00;;
23410;SDS011;11878;51.774;7.220;2022-10-13T02:29:17;19.33;;;6.17;;
23410;SDS011;11878;51.774;7.220;2022-10-13T02:32:19;15.23;;;6.73;;
23410;SDS011;11878;51.774;7.220;2022-10-13T02:35:22;17.00;;;8.53;;
23410;SDS011;11878;51.774;7.220;2022-10-13T02:38:23;15.07;;;8.40;;
23410;SDS011;11878;51.774;7.220;2022-10-13T02:41:25;17.10;;;9.07;;
23410;SDS011;11878;51.774;7.220;2022-10-13T02:44:27;23.17;;;11.07;;
23410;SDS011;11878;51.774;7.220;2022-10-13T02:47:28;27.73;;;11.87;;
23410;SDS011;11878;51.774;7.220;2022-10-13T02:50:30;24.17;;;12.63;;
23410;SDS011;11878;51.774;7.220;2022-10-13T02:53:32;28.70;;;14.63;;
23410;SDS011;11878;51.774;7.220;2022-10-13T02:56:34;24.87;;;12.47;;
23410;SDS011;11878;51.774;7.220;2022-10-13T02:59:35;24.30;;;13.30;;
23410;SDS011;11878;51.774;7.220;2022-10-13T03:02:37;27.40;;;13.83;;
23410;SDS011;11878;51.774;7.220;2022-10-13T03:05:39;25.03;;;12.97;;
23410;SDS011;11878;51.774;7.220;2022-10-13T03:08:40;26.30;;;13.40;;
23410;SDS011;11878;51.774;7.220;2022-10-13T03:11:42;31.37;;;14.17;;
23410;SDS011;11878;51.774;7.220;2022-10-13T03:14:44;24.40;;;12.83;;
23410;SDS011;11878;51.774;7.220;2022-10-13T03:17:45;25.80;;;11.60;;
23410;SDS011;11878;51.774;7.220;2022-10-13T03:21:03;22.60;;;12.07;;
23410;SDS011;11878;51.774;7.220;2022-10-13T03:24:06;20.60;;;11.43;;
23410;SDS011;11878;51.774;7.220;2022-10-13T03:27:08;24.17;;;11.03;;
23410;SDS011;11878;51.774;7.220;2022-10-13T03:30:11;17.47;;;10.57;;
23410;SDS011;11878;51.774;7.220;2022-10-13T03:33:13;22.00;;;10.73;;
23410;SDS011;11878;51.774;7.220;2022-10-13T03:36:15;20.73;;;10.40;;
23410;SDS011;11878;51.774;7.220;2022-10-13T03:39:19;22.37;;;10.87;;
23410;SDS011;11878;51.774;7.220;2022-10-13T03:42:22;19.37;;;9.40;;
23410;SDS011;11878;51.774;7.220;2022-10-13T03:45:24;20.77;;;10.77;;
23410;SDS011;11878;51.774;7.220;2022-10-13T03:48:26;21.87;;;9.50;;
23410;SDS011;11878;51.774;7.220;2022-10-13T03:51:27;23.93;;;10.33;;
23410;SDS011;11878;51.774;7.220;2022-10-13T03:54:29;18.17;;;9.20;;
23410;SDS011;11878;51.774;7.220;2022-10-13T03:57:31;17.27;;;8.53;;
23410;SDS011;11878;51.774;7.220;2022-10-13T04:00:36;21.50;;;9.07;;
23410;SDS011;11878;51.774;7.220;2022-10-13T04:03:37;18.67;;;8.77;;
23410;SDS011;11878;51.774;7.220;2022-10-13T04:06:39;14.67;;;8.10;;
23410;SDS011;11878;51.774;7.220;2022-10-13T04:09:41;16.03;;;8.57;;
23410;SDS011;11878;51.774;7.220;2022-10-13T04:12:42;14.27;;;7.73;;
23410;SDS011;11878;51.774;7.220;2022-10-13T04:15:44;19.83;;;8.07;;
23410;SDS011;11878;51.774;7.220;2022-10-13T04:18:49;15.70;;;7.67;;
23410;SDS011;11878;51.774;7.220;2022-10-13T04:21:52;16.60;;;8.50;;
23410;SDS011;11878;51.774;7.220;2022-10-13T04:24:54;14.47;;;7.67;;
23410;SDS011;11878;51.774;7.220;2022-10-13T04:27:57;14.90;;;7.97;;
23410;SDS011;11878;51.774;7.220;2022-10-13T04:30:59;13.30;;;7.70;;
23410;SDS011;11878;51.774;7.220;2022-10-13T04:34:01;17.60;;;7.67;;
23410;SDS011;11878;51.774;7.220;2022-10-13T04:37:03;26.40;;;8.87;;
23410;SDS011;11878;51.774;7.220;2022-10-13T04:40:05;15.53;;;7.33;;
23410;SDS011;11878;51.774;7.220;2022-10-13T04:43:08;19.07;;;8.77;;
23410;SDS011;11878;51.774;7.220;2022-10-13T04:46:13;18.07;;;8.27;;
23410;SDS011;11878;51.774;7.220;2022-10-13T04:49:19;20.10;;;8.13;;
23410;SDS011;11878;51.774;7.220;2022-10-13T04:52:20;14.27;;;7.77;;
23410;SDS011;11878;51.774;7.220;2022-10-13T04:55:23;16.40;;;7.73;;
23410;SDS011;11878;51.774;7.220;2022-10-13T04:58:25;21.60;;;7.83;;
23410;SDS011;11878;51.774;7.220;2022-10-13T05:01:27;19.13;;;8.63;;
23410;SDS011;11878;51.774;7.220;2022-10-13T05:04:28;17.80;;;8.10;;
23410;SDS011;11878;51.774;7.220;2022-10-13T05:07:30;19.33;;;8.13;;
23410;SDS011;11878;51.774;7.220;2022-10-13T05:10:32;17.13;;;7.80;;
23410;SDS011;11878;51.774;7.220;2022-10-13T05:13:35;15.90;;;7.47;;
23410;SDS011;11878;51.774;7.220;2022-10-13T05:16:37;13.37;;;7.77;;
23410;SDS011;11878;51.774;7.220;2022-10-13T05:19:38;21.30;;;8.03;;
23410;SDS011;11878;51.774;7.220;2022-10-13T05:22:40;14.00;;;7.83;;
23410;SDS011;11878;51.774;7.220;2022-10-13T05:25:42;17.60;;;7.43;;
23410;SDS011;11878;51.774;7.220;2022-10-13T05:28:47;15.30;;;7.83;;
23410;SDS011;11878;51.774;7.220;2022-10-13T05:31:48;12.07;;;7.10;;
23410;SDS011;11878;51.774;7.220;2022-10-13T05:34:50;19.10;;;8.13;;
23410;SDS011;11878;51.774;7.220;2022-10-13T05:37:52;20.73;;;6.87;;
23410;SDS011;11878;51.774;7.220;2022-10-13T05:40:53;18.80;;;8.13;;
23410;SDS011;11878;51.774;7.220;2022-10-13T05:43:57;16.83;;;7.80;;
23410;SDS011;11878;51.774;7.220;2022-10-13T05:47:01;18.97;;;8.23;;
23410;SDS011;11878;51.774;7.220;2022-10-13T05:50:07;17.27;;;7.17;;
23410;SDS011;11878;51.774;7.220;2022-10-13T05:53:13;19.77;;;9.30;;
23410;SDS011;11878;51.774;7.220;2022-10-13T05:56:17;19.63;;;8.60;;
23410;SDS011;11878;51.774;7.220;2022-10-13T05:59:22;17.53;;;8.50;;
23410;SDS011;11878;51.774;7.220;2022-10-13T06:02:29;25.10;;;8.67;;
23410;SDS011;11878;51.774;7.220;2022-10-13T06:05:37;15.67;;;8.43;;
23410;SDS011;11878;51.774;7.220;2022-10-13T06:08:40;22.17;;;8.27;;
23410;SDS011;11878;51.774;7.220;2022-10-13T06:11:42;18.53;;;7.50;;
23410;SDS011;11878;51.774;7.220;2022-10-13T06:14:44;14.23;;;7.00;;
23410;SDS011;11878;51.774;7.220;2022-10-13T06:17:46;13.47;;;7.80;;
23410;SDS011;11878;51.774;7.220;2022-10-13T06:20:48;15.13;;;7.13;;
23410;SDS011;11878;51.774;7.220;2022-10-13T06:23:50;16.87;;;7.77;;
23410;SDS011;11878;51.774;7.220;2022-10-13T06:26:53;14.67;;;7.50;;
23410;SDS011;11878;51.774;7.220;2022-10-13T06:29:55;17.30;;;8.17;;
23410;SDS011;11878;51.774;7.220;2022-10-13T06:32:57;18.10;;;9.77;;
23410;SDS011;11878;51.774;7.220;2022-10-13T06:36:02;17.63;;;9.13;;
23410;SDS011;11878;51.774;7.220;2022-10-13T06:39:05;16.50;;;8.47;;
23410;SDS011;11878;51.774;7.220;2022-10-13T06:42:07;20.00;;;8.90;;
23410;SDS011;11878;51.774;7.220;2022-10-13T06:45:11;28.50;;;9.33;;
23410;SDS011;11878;51.774;7.220;2022-10-13T06:48:13;20.03;;;9.50;;
23410;SDS011;11878;51.774;7.220;2022-10-13T06:51:15;17.53;;;8.90;;
23410;SDS011;11878;51.774;7.220;2022-10-13T06:54:17;20.20;;;8.23;;
23410;SDS011;11878;51.774;7.220;2022-10-13T06:57:19;19.87;;;8.70;;
23410;SDS011;11878;51.774;7.220;2022-10-13T07:00:21;18.77;;;8.03;;
23410;SDS011;11878;51.774;7.220;2022-10-13T07:03:23;20.20;;;9.17;;
23410;SDS011;11878;51.774;7.220;2022-10-13T07:06:25;17.60;;;7.60;;
23410;SDS011;11878;51.774;7.220;2022-10-13T07:09:27;17.53;;;7.57;;
23410;SDS011;11878;51.774;7.220;2022-10-13T07:12:29;17.83;;;7.07;;
23410;SDS011;11878;51.774;7.220;2022-10-13T07:15:30;20.37;;;7.43;;
23410;SDS011;11878;51.774;7.220;2022-10-13T07:18:32;22.40;;;7.83;;
23410;SDS011;11878;51.774;7.220;2022-10-13T07:21:34;18.83;;;7.63;;
23410;SDS011;11878;51.774;7.220;2022-10-13T07:24:36;16.30;;;6.60;;
23410;SDS011;11878;51.774;7.220;2022-10-13T07:27:37;17.90;;;8.17;;
23410;SDS011;11878;51.774;7.220;2022-10-13T07:30:41;14.37;;;7.33;;
23410;SDS011;11878;51.774;7.220;2022-10-13T07:33:43;14.73;;;7.03;;
23410;SDS011;11878;51.774;7.220;2022-10-13T07:36:49;24.30;;;7.43;;
23410;SDS011;11878;51.774;7.220;2022-10-13T07:39:51;16.10;;;7.30;;
23410;SDS011;11878;51.774;7.220;2022-10-13T07:42:54;17.30;;;7.00;;
23410;SDS011;11878;51.774;7.220;2022-10-13T07:45:57;13.27;;;7.37;;
23410;SDS011;11878;51.774;7.220;2022-10-13T07:49:00;20.10;;;7.27;;
23410;SDS011;11878;51.774;7.220;2022-10-13T07:52:02;15.50;;;6.63;;
23410;SDS011;11878;51.774;7.220;2022-10-13T07:55:04;16.03;;;7.50;;
23410;SDS011;11878;51.774;7.220;2022-10-13T07:58:06;22.93;;;7.23;;
23410;SDS011;11878;51.774;7.220;2022-10-13T08:01:08;24.90;;;9.03;;
23410;SDS011;11878;51.774;7.220;2022-10-13T08:04:14;18.53;;;7.80;;
23410;SDS011;11878;51.774;7.220;2022-10-13T08:07:15;14.07;;;6.77;;
23410;SDS011;11878;51.774;7.220;2022-10-13T08:10:18;12.47;;;6.53;;
23410;SDS011;11878;51.774;7.220;2022-10-13T08:13:21;14.13;;;7.10;;
23410;SDS011;11878;51.774;7.220;2022-10-13T08:16:22;16.53;;;7.27;;
23410;SDS011;11878;51.774;7.220;2022-10-13T08:19:24;20.67;;;6.77;;
23410;SDS011;11878;51.774;7.220;2022-10-13T08:22:26;22.20;;;7.80;;
23410;SDS011;11878;51.774;7.220;2022-10-13T08:25:28;19.97;;;8.00;;
23410;SDS011;11878;51.774;7.220;2022-10-13T08:28:31;15.33;;;7.03;;
23410;SDS011;11878;51.774;7.220;2022-10-13T08:31:32;17.47;;;7.57;;
23410;SDS011;11878;51.774;7.220;2022-10-13T08:34:35;17.03;;;8.00;;
23410;SDS011;11878;51.774;7.220;2022-10-13T08:37:37;15.10;;;7.50;;
23410;SDS011;11878;51.774;7.220;2022-10-13T08:40:38;14.97;;;8.00;;
23410;SDS011;11878;51.774;7.220;2022-10-13T08:43:40;19.60;;;8.40;;
23410;SDS011;11878;51.774;7.220;2022-10-13T08:50:28;22.10;;;8.00;;
23410;SDS011;11878;51.774;7.220;2022-10-13T08:53:42;17.37;;;7.80;;
23410;SDS011;11878;51.774;7.220;2022-10-13T08:56:46;17.07;;;8.10;;
23410;SDS011;11878;51.774;7.220;2022-10-13T08:59:51;18.13;;;7.30;;
23410;SDS011;11878;51.774;7.220;2022-10-13T09:02:53;20.00;;;7.63;;
23410;SDS011;11878;51.774;7.220;2022-10-13T09:06:13;21.43;;;8.20;;
23410;SDS011;11878;51.774;7.220;2022-10-13T09:09:18;15.57;;;8.07;;
23410;SDS011;11878;51.774;7.220;2022-10-13T09:12:20;11.50;;;7.10;;
23410;SDS011;11878;51.774;7.220;2022-10-13T09:15:25;15.50;;;7.83;;
23410;SDS011;11878;51.774;7.220;2022-10-13T09:18:27;15.60;;;7.90;;
23410;SDS011;11878;51.774;7.220;2022-10-13T09:21:31;23.80;;;9.80;;
23410;SDS011;11878;51.774;7.220;2022-10-13T09:24:33;23.77;;;9.27;;
23410;SDS011;11878;51.774;7.220;2022-10-13T09:27:42;21.23;;;9.27;;
23410;SDS011;11878;51.774;7.220;2022-10-13T09:30:47;22.83;;;9.10;;
23410;SDS011;11878;51.774;7.220;2022-10-13T09:34:02;19.57;;;8.77;;
23410;SDS011;11878;51.774;7.220;2022-10-13T09:37:24;13.83;;;7.93;;
23410;SDS011;11878;51.774;7.220;2022-10-13T09:40:26;20.83;;;9.70;;
23410;SDS011;11878;51.774;7.220;2022-10-13T09:43:32;20.07;;;8.77;;
23410;SDS011;11878;51.774;7.220;2022-10-13T09:49:56;23.00;;;8.73;;
23410;SDS011;11878;51.774;7.220;2022-10-13T09:53:08;18.20;;;9.23;;
23410;SDS011;11878;51.774;7.220;2022-10-13T09:56:32;18.83;;;8.63;;
23410;SDS011;11878;51.774;7.220;2022-10-13T09:59:46;26.77;;;8.63;;
23410;SDS011;11878;51.774;7.220;2022-10-13T10:02:57;18.90;;;8.80;;
23410;SDS011;11878;51.774;7.220;2022-10-13T10:06:08;21.80;;;8.73;;
23410;SDS011;11878;51.774;7.220;2022-10-13T10:09:27;16.83;;;8.10;;
23410;SDS011;11878;51.774;7.220;2022-10-13T10:12:44;22.37;;;8.00;;
23410;SDS011;11878;51.774;7.220;2022-10-13T10:15:51;16.00;;;7.80;;
23410;SDS011;11878;51.774;7.220;2022-10-13T10:22:41;16.73;;;8.00;;
23410;SDS011;11878;51.774;7.220;2022-10-13T10:25:41;21.23;;;8.40;;
23410;SDS011;11878;51.774;7.220;2022-10-13T10:32:04;16.20;;;6.77;;
23410;SDS011;11878;51.774;7.220;2022-10-13T10:38:54;23.10;;;6.93;;
23410;SDS011;11878;51.774;7.220;2022-10-13T10:42:02;19.27;;;6.73;;
23410;SDS011;11878;51.774;7.220;2022-10-13T10:45:36;14.17;;;6.43;;
23410;SDS011;11878;51.774;7.220;2022-10-13T10:48:39;14.03;;;5.83;;
23410;SDS011;11878;51.774;7.220;2022-10-13T10:51:43;12.97;;;7.13;;
23410;SDS011;11878;51.774;7.220;2022-10-13T10:54:48;14.60;;;6.23;;
23410;SDS011;11878;51.774;7.220;2022-10-13T10:58:04;16.77;;;6.97;;
23410;SDS011;11878;51.774;7.220;2022-10-13T11:04:44;14.97;;;6.27;;
23410;SDS011;11878;51.774;7.220;2022-10-13T11:14:41;17.40;;;6.83;;
23410;SDS011;11878;51.774;7.220;2022-10-13T11:17:43;22.37;;;8.00;;
23410;SDS011;11878;51.774;7.220;2022-10-13T11:23:47;18.73;;;7.50;;
23410;SDS011;11878;51.774;7.220;2022-10-13T11:26:49;15.20;;;5.80;;
23410;SDS011;11878;51.774;7.220;2022-10-13T11:29:53;14.63;;;5.07;;
23410;SDS011;11878;51.774;7.220;2022-10-13T11:32:59;10.00;;;5.73;;
23410;SDS011;11878;51.774;7.220;2022-10-13T11:39:41;10.33;;;5.90;;
23410;SDS011;11878;51.774;7.220;2022-10-13T11:42:59;9.83;;;4.83;;
23410;SDS011;11878;51.774;7.220;2022-10-13T11:46:48;12.47;;;4.63;;
23410;SDS011;11878;51.774;7.220;2022-10-13T11:50:17;10.53;;;4.50;;
23410;SDS011;11878;51.774;7.220;2022-10-13T11:53:46;15.40;;;4.87;;
23410;SDS011;11878;51.774;7.220;2022-10-13T11:57:21;17.33;;;5.17;;
23410;SDS011;11878;51.774;7.220;2022-10-13T12:00:25;7.90;;;3.90;;
23410;SDS011;11878;51.774;7.220;2022-10-13T12:03:38;9.93;;;4.80;;
23410;SDS011;11878;51.774;7.220;2022-10-13T12:06:44;10.90;;;5.13;;
23410;SDS011;11878;51.774;7.220;2022-10-13T12:09:54;10.20;;;4.27;;
23410;SDS011;11878;51.774;7.220;2022-10-13T12:12:57;9.27;;;4.07;;
23410;SDS011;11878;51.774;7.220;2022-10-13T12:16:00;10.90;;;4.63;;
23410;SDS011;11878;51.774;7.220;2022-10-13T12:19:18;7.37;;;4.33;;
23410;SDS011;11878;51.774;7.220;2022-10-13T12:22:22;22.33;;;4.30;;
23410;SDS011;11878;51.774;7.220;2022-10-13T12:25:25;12.00;;;4.60;;
23410;SDS011;11878;51.774;7.220;2022-10-13T12:31:56;11.43;;;4.80;;
23410;SDS011;11878;51.774;7.220;2022-10-13T12:38:33;11.00;;;5.90;;
23410;SDS011;11878;51.774;7.220;2022-10-13T12:41:36;17.77;;;5.43;;
23410;SDS011;11878;51.774;7.220;2022-10-13T12:44:41;11.53;;;5.23;;
23410;SDS011;11878;51.774;7.220;2022-10-13T12:50:44;13.93;;;5.80;;
23410;SDS011;11878;51.774;7.220;2022-10-13T12:53:46;16.50;;;5.77;;
23410;SDS011;11878;51.774;7.220;2022-10-13T12:56:49;14.20;;;6.33;;
23410;SDS011;11878;51.774;7.220;2022-10-13T12:59:56;10.13;;;4.97;;
23410;SDS011;11878;51.774;7.220;2022-10-13T13:02:59;21.63;;;5.40;;
23410;SDS011;11878;51.774;7.220;2022-10-13T13:09:20;11.60;;;5.43;;
23410;SDS011;11878;51.774;7.220;2022-10-13T13:12:25;14.27;;;5.07;;
23410;SDS011;11878;51.774;7.220;2022-10-13T13:15:35;15.77;;;5.30;;
23410;SDS011;11878;51.774;7.220;2022-10-13T13:18:38;12.50;;;5.83;;
23410;SDS011;11878;51.774;7.220;2022-10-13T13:21:41;11.30;;;5.53;;
23410;SDS011;11878;51.774;7.220;2022-10-13T13:24:43;14.53;;;5.67;;
23410;SDS011;11878;51.774;7.220;2022-10-13T13:27:46;18.63;;;5.80;;
23410;SDS011;11878;51.774;7.220;2022-10-13T13:30:49;17.10;;;6.30;;
23410;SDS011;11878;51.774;7.220;2022-10-13T13:33:51;14.20;;;5.30;;
23410;SDS011;11878;51.774;7.220;2022-10-13T13:36:53;12.23;;;6.03;;
23410;SDS011;11878;51.774;7.220;2022-10-13T13:39:54;13.80;;;5.40;;
23410;SDS011;11878;51.774;7.220;2022-10-13T13:42:56;16.37;;;5.40;;
23410;SDS011;11878;51.774;7.220;2022-10-13T13:46:04;11.23;;;5.40;;
23410;SDS011;11878;51.774;7.220;2022-10-13T13:49:07;11.43;;;5.33;;
23410;SDS011;11878;51.774;7.220;2022-10-13T13:52:11;12.97;;;5.53;;
23410;SDS011;11878;51.774;7.220;2022-10-13T13:55:13;11.53;;;5.57;;
23410;SDS011;11878;51.774;7.220;2022-10-13T13:58:15;12.03;;;6.03;;
23410;SDS011;11878;51.774;7.220;2022-10-13T14:01:17;10.63;;;5.63;;
23410;SDS011;11878;51.774;7.220;2022-10-13T14:04:19;18.63;;;5.87;;
23410;SDS011;11878;51.774;7.220;2022-10-13T14:07:20;15.70;;;5.17;;
23410;SDS011;11878;51.774;7.220;2022-10-13T14:10:24;15.83;;;6.37;;
23410;SDS011;11878;51.774;7.220;2022-10-13T14:13:26;16.77;;;7.33;;
23410;SDS011;11878;51.774;7.220;2022-10-13T14:16:28;18.80;;;8.03;;
23410;SDS011;11878;51.774;7.220;2022-10-13T14:19:31;18.00;;;7.17;;
23410;SDS011;11878;51.774;7.220;2022-10-13T14:22:35;19.00;;;7.53;;
23410;SDS011;11878;51.774;7.220;2022-10-13T14:25:38;14.17;;;7.10;;
23410;SDS011;11878;51.774;7.220;2022-10-13T14:28:40;18.37;;;6.30;;
23410;SDS011;11878;51.774;7.220;2022-10-13T14:31:43;13.10;;;6.63;;
23410;SDS011;11878;51.774;7.220;2022-10-13T14:34:44;11.13;;;5.90;;
23410;SDS011;11878;51.774;7.220;2022-10-13T14:37:46;13.93;;;5.90;;
23410;SDS011;11878;51.774;7.220;2022-10-13T14:40:48;14.57;;;6.40;;
23410;SDS011;11878;51.774;7.220;2022-10-13T14:43:52;14.80;;;5.63;;
23410;SDS011;11878;51.774;7.220;2022-10-13T14:46:55;13.27;;;5.53;;
23410;SDS011;11878;51.774;7.220;2022-10-13T14:49:57;15.83;;;6.50;;
23410;SDS011;11878;51.774;7.220;2022-10-13T14:53:01;8.20;;;5.10;;
23410;SDS011;11878;51.774;7.220;2022-10-13T14:56:13;14.40;;;6.57;;
23410;SDS011;11878;51.774;7.220;2022-10-13T14:59:22;9.77;;;5.87;;
23410;SDS011;11878;51.774;7.220;2022-10-13T15:02:24;18.07;;;6.70;;
23410;SDS011;11878;51.774;7.220;2022-10-13T15:05:26;11.77;;;7.00;;
23410;SDS011;11878;51.774;7.220;2022-10-13T15:08:28;13.60;;;7.33;;
23410;SDS011;11878;51.774;7.220;2022-10-13T15:11:30;17.20;;;7.37;;
23410;SDS011;11878;51.774;7.220;2022-10-13T15:14:32;12.37;;;6.33;;
23410;SDS011;11878;51.774;7.220;2022-10-13T15:17:34;7.77;;;5.30;;
23410;SDS011;11878;51.774;7.220;2022-10-13T15:20:37;12.53;;;6.63;;
23410;SDS011;11878;51.774;7.220;2022-10-13T15:23:38;16.40;;;7.50;;
23410;SDS011;11878;51.774;7.220;2022-10-13T15:26:40;9.77;;;6.17;;
23410;SDS011;11878;51.774;7.220;2022-10-13T15:29:42;12.30;;;6.80;;
23410;SDS011;11878;51.774;7.220;2022-10-13T15:32:46;11.13;;;6.30;;
23410;SDS011;11878;51.774;7.220;2022-10-13T15:35:50;16.77;;;6.30;;
23410;SDS011;11878;51.774;7.220;2022-10-13T15:38:52;12.90;;;7.13;;
23410;SDS011;11878;51.774;7.220;2022-10-13T15:41:54;14.50;;;7.20;;
23410;SDS011;11878;51.774;7.220;2022-10-13T15:44:56;12.00;;;6.63;;
23410;SDS011;11878;51.774;7.220;2022-10-13T15:48:10;10.60;;;6.50;;
23410;SDS011;11878;51.774;7.220;2022-10-13T15:51:17;14.80;;;5.80;;
23410;SDS011;11878;51.774;7.220;2022-10-13T15:54:20;14.00;;;5.73;;
23410;SDS011;11878;51.774;7.220;2022-10-13T15:57:22;14.70;;;6.43;;
23410;SDS011;11878;51.774;7.220;2022-10-13T16:00:24;11.23;;;5.67;;
23410;SDS011;11878;51.774;7.220;2022-10-13T16:03:26;9.20;;;5.50;;
23410;SDS011;11878;51.774;7.220;2022-10-13T16:06:29;14.53;;;6.27;;
23410;SDS011;11878;51.774;7.220;2022-10-13T16:09:33;11.50;;;6.40;;
23410;SDS011;11878;51.774;7.220;2022-10-13T16:12:35;16.57;;;6.57;;
23410;SDS011;11878;51.774;7.220;2022-10-13T16:15:38;15.73;;;6.97;;
23410;SDS011;11878;51.774;7.220;2022-10-13T16:18:39;11.13;;;6.83;;
23410;SDS011;11878;51.774;7.220;2022-10-13T16:21:42;14.80;;;7.17;;
23410;SDS011;11878;51.774;7.220;2022-10-13T16:24:43;12.37;;;6.40;;
23410;SDS011;11878;51.774;7.220;2022-10-13T16:27:45;11.80;;;7.20;;
23410;SDS011;11878;51.774;7.220;2022-10-13T16:30:47;15.80;;;6.70;;
23410;SDS011;11878;51.774;7.220;2022-10-13T16:33:48;13.33;;;7.50;;
23410;SDS011;11878;51.774;7.220;2022-10-13T16:36:50;16.27;;;7.37;;
23410;SDS011;11878;51.774;7.220;2022-10-13T16:39:52;14.67;;;8.13;;
23410;SDS011;11878;51.774;7.220;2022-10-13T16:42:54;14.23;;;6.80;;
23410;SDS011;11878;51.774;7.220;2022-10-13T16:45:56;12.67;;;6.83;;
23410;SDS011;11878;51.774;7.220;2022-10-13T16:49:00;12.23;;;7.57;;
23410;SDS011;11878;51.774;7.220;2022-10-13T16:52:02;14.50;;;8.70;;
23410;SDS011;11878;51.774;7.220;2022-10-13T16:55:04;14.03;;;7.83;;
23410;SDS011;11878;51.774;7.220;2022-10-13T16:58:06;16.30;;;8.83;;
23410;SDS011;11878;51.774;7.220;2022-10-13T17:01:08;18.77;;;8.83;;
23410;SDS011;11878;51.774;7.220;2022-10-13T17:04:11;18.80;;;9.70;;
23410;SDS011;11878;51.774;7.220;2022-10-13T17:07:13;16.07;;;8.93;;
23410;SDS011;11878;51.774;7.220;2022-10-13T17:10:14;12.90;;;8.60;;
23410;SDS011;11878;51.774;7.220;2022-10-13T17:13:16;15.17;;;8.37;;
23410;SDS011;11878;51.774;7.220;2022-10-13T17:16:18;13.17;;;9.07;;
23410;SDS011;11878;51.774;7.220;2022-10-13T17:19:20;18.10;;;9.40;;
23410;SDS011;11878;51.774;7.220;2022-10-13T17:22:22;17.47;;;8.60;;
23410;SDS011;11878;51.774;7.220;2022-10-13T17:25:24;14.87;;;8.37;;
23410;SDS011;11878;51.774;7.220;2022-10-13T17:28:26;24.30;;;10.30;;
23410;SDS011;11878;51.774;7.220;2022-10-13T17:31:27;20.83;;;12.07;;
23410;SDS011;11878;51.774;7.220;2022-10-13T17:34:29;21.73;;;12.60;;
23410;SDS011;11878;51.774;7.220;2022-10-13T17:37:33;48.80;;;29.63;;
23410;SDS011;11878;51.774;7.220;2022-10-13T17:40:34;31.47;;;18.77;;
23410;SDS011;11878;51.774;7.220;2022-10-13T17:43:37;29.83;;;15.10;;
23410;SDS011;11878;51.774;7.220;2022-10-13T17:46:39;24.33;;;12.33;;
23410;SDS011;11878;51.774;7.220;2022-10-13T17:49:41;19.00;;;11.27;;
23410;SDS011;11878;51.774;7.220;2022-10-13T17:52:45;22.90;;;11.23;;
23410;SDS011;11878;51.774;7.220;2022-10-13T17:55:47;23.33;;;9.50;;
23410;SDS011;11878;51.774;7.220;2022-10-13T17:58:51;19.73;;;10.93;;
23410;SDS011;11878;51.774;7.220;2022-10-13T18:01:53;18.67;;;10.53;;
23410;SDS011;11878;51.774;7.220;2022-10-13T18:04:55;21.77;;;11.43;;
23410;SDS011;11878;51.774;7.220;2022-10-13T18:07:57;22.47;;;11.70;;
23410;SDS011;11878;51.774;7.220;2022-10-13T18:11:05;17.93;;;11.03;;
23410;SDS011;11878;51.774;7.220;2022-10-13T18:14:09;17.17;;;10.70;;
23410;SDS011;11878;51.774;7.220;2022-10-13T18:17:13;23.63;;;12.87;;
23410;SDS011;11878;51.774;7.220;2022-10-13T18:20:15;18.43;;;11.77;;
23410;SDS011;11878;51.774;7.220;2022-10-13T18:23:20;30.23;;;12.00;;
23410;SDS011;11878;51.774;7.220;2022-10-13T18:26:22;18.63;;;10.93;;
23410;SDS011;11878;51.774;7.220;2022-10-13T18:29:24;24.23;;;11.50;;
23410;SDS011;11878;51.774;7.220;2022-10-13T18:32:25;21.60;;;12.60;;
23410;SDS011;11878;51.774;7.220;2022-10-13T18:35:28;20.53;;;12.17;;
23410;SDS011;11878;51.774;7.220;2022-10-13T18:38:32;22.10;;;12.57;;
23410;SDS011;11878;51.774;7.220;2022-10-13T18:41:34;22.53;;;12.23;;
23410;SDS011;11878;51.774;7.220;2022-10-13T18:44:36;20.30;;;11.60;;
23410;SDS011;11878;51.774;7.220;2022-10-13T18:47:38;26.30;;;11.70;;
23410;SDS011;11878;51.774;7.220;2022-10-13T18:50:40;19.57;;;10.27;;
23410;SDS011;11878;51.774;7.220;2022-10-13T18:53:42;17.57;;;11.23;;
23410;SDS011;11878;51.774;7.220;2022-10-13T18:56:46;23.40;;;11.63;;
23410;SDS011;11878;51.774;7.220;2022-10-13T18:59:48;20.87;;;11.27;;
23410;SDS011;11878;51.774;7.220;2022-10-13T19:02:51;21.37;;;10.83;;
23410;SDS011;11878;51.774;7.220;2022-10-13T19:05:53;22.10;;;12.10;;
23410;SDS011;11878;51.774;7.220;2022-10-13T19:08:59;22.13;;;12.50;;
23410;SDS011;11878;51.774;7.220;2022-10-13T19:12:03;21.33;;;11.97;;
23410;SDS011;11878;51.774;7.220;2022-10-13T19:15:05;22.53;;;11.83;;
23410;SDS011;11878;51.774;7.220;2022-10-13T19:18:07;22.57;;;12.67;;
23410;SDS011;11878;51.774;7.220;2022-10-13T19:21:09;21.17;;;11.40;;
23410;SDS011;11878;51.774;7.220;2022-10-13T19:24:11;20.37;;;11.93;;
23410;SDS011;11878;51.774;7.220;2022-10-13T19:27:13;23.30;;;12.83;;
23410;SDS011;11878;51.774;7.220;2022-10-13T19:30:15;20.03;;;11.87;;
23410;SDS011;11878;51.774;7.220;2022-10-13T19:33:17;26.57;;;11.83;;